Time;durP1;ratioP1;P1;durP2;ratioP2;P2;SDS_P1;SDS_P2;PMS_P1;PMS_P2;Temp;Humidity;BMP_temperature;BMP_pressure;BME280_temperature;BME280_humidity;BME280_pressure;Samples;Min_cycle;Max_cycle;Signal;HPM_P1;HPM_P2
2022/06/24 00:00:35;;;;;;;10.57;9.55;;;;;;;;;;4452472;32;20642;-58
2022/06/24 00:03:01;;;;;;;12.13;9.13;;;;;;;;;;4452056;32;20243;-58
2022/06/24 00:05:30;;;;;;;18.00;12.55;;;;;;;;;;4451807;32;20224;-58
2022/06/24 00:07:57;;;;;;;16.73;13.32;;;;;;;;;;4451935;32;20217;-58
2022/06/24 00:10:25;;;;;;;10.93;8.82;;;;;;;;;;4450968;32;20307;-58
2022/06/24 00:12:51;;;;;;;10.05;8.35;;;;;;;;;;4451857;32;20308;-58
2022/06/24 00:15:28;;;;;;;10.82;8.45;;;;;;;;;;4451823;32;20533;-58
2022/06/24 00:17:54;;;;;;;7.90;7.10;;;;;;;;;;4450698;32;20364;-59
2022/06/24 00:20:21;;;;;;;8.15;6.78;;;;;;;;;;4451594;32;20201;-59
2022/06/24 00:22:49;;;;;;;8.57;6.55;;;;;;;;;;4451457;32;20725;-57
2022/06/24 00:25:22;;;;;;;7.90;6.30;;;;;;;;;;4451721;32;20582;-58
2022/06/24 00:28:04;;;;;;;9.75;7.25;;;;;;;;;;4450370;32;20247;-58
2022/06/24 00:30:36;;;;;;;9.55;6.30;;;;;;;;;;4450612;32;20632;-57
2022/06/24 00:33:32;;;;;;;9.35;6.35;;;;;;;;;;4451276;32;20220;-59
2022/06/24 00:36:01;;;;;;;9.60;6.55;;;;;;;;;;4450294;32;20341;-57
2022/06/24 00:38:30;;;;;;;8.52;6.45;;;;;;;;;;4435854;32;20235;-57
2022/06/24 00:41:01;;;;;;;8.20;6.65;;;;;;;;;;4434761;32;20687;-57
2022/06/24 00:43:31;;;;;;;10.40;6.12;;;;;;;;;;4447945;32;20213;-57
2022/06/24 00:46:10;;;;;;;11.10;6.75;;;;;;;;;;4451643;32;20233;-57
2022/06/24 00:48:41;;;;;;;7.18;6.20;;;;;;;;;;4451208;32;20204;-57
2022/06/24 00:51:10;;;;;;;10.68;6.78;;;;;;;;;;4451297;32;20738;-57
2022/06/24 00:53:43;;;;;;;9.90;7.37;;;;;;;;;;4451238;32;20216;-56
2022/06/24 00:56:11;;;;;;;8.13;5.95;;;;;;;;;;4451269;32;20240;-57
2022/06/24 00:58:37;;;;;;;9.23;6.70;;;;;;;;;;4451438;32;20490;-57
2022/06/24 01:01:03;;;;;;;9.55;6.93;;;;;;;;;;4451173;32;20211;-58
2022/06/24 01:03:37;;;;;;;7.72;6.80;;;;;;;;;;4450794;32;20350;-58
2022/06/24 01:06:02;;;;;;;15.07;9.05;;;;;;;;;;4451025;32;20204;-58
2022/06/24 01:08:28;;;;;;;12.75;8.98;;;;;;;;;;4449928;32;20303;-57
2022/06/24 01:10:53;;;;;;;10.00;7.18;;;;;;;;;;4450775;32;20227;-57
2022/06/24 01:13:19;;;;;;;11.50;7.65;;;;;;;;;;4450089;32;20212;-57
2022/06/24 01:15:44;;;;;;;9.93;7.50;;;;;;;;;;4451375;32;20747;-57
2022/06/24 01:18:09;;;;;;;14.35;11.23;;;;;;;;;;4451043;32;20267;-57
2022/06/24 01:20:35;;;;;;;18.65;12.80;;;;;;;;;;4450769;32;20287;-58
2022/06/24 01:23:01;;;;;;;12.13;8.93;;;;;;;;;;4450414;32;20330;-58
2022/06/24 01:25:30;;;;;;;11.48;6.85;;;;;;;;;;4449700;32;20664;-58
2022/06/24 01:27:55;;;;;;;10.93;7.47;;;;;;;;;;4450640;32;20767;-57
2022/06/24 01:30:21;;;;;;;10.18;6.87;;;;;;;;;;4450991;32;20204;-58
2022/06/24 01:32:46;;;;;;;10.98;6.75;;;;;;;;;;4450804;32;21071;-58
2022/06/24 01:35:13;;;;;;;8.52;6.90;;;;;;;;;;4450907;32;20223;-58
2022/06/24 01:37:39;;;;;;;11.05;8.75;;;;;;;;;;4450779;32;20288;-59
2022/06/24 01:40:05;;;;;;;19.52;9.75;;;;;;;;;;4450774;32;20209;-58
2022/06/24 01:42:30;;;;;;;16.25;10.55;;;;;;;;;;4450269;32;20224;-58
2022/06/24 01:44:56;;;;;;;16.83;11.05;;;;;;;;;;4450522;32;20254;-58
2022/06/24 01:47:21;;;;;;;13.60;9.35;;;;;;;;;;4450691;32;20283;-58
2022/06/24 01:49:47;;;;;;;10.30;8.27;;;;;;;;;;4450269;32;20213;-58
2022/06/24 01:52:12;;;;;;;13.45;8.13;;;;;;;;;;4450650;32;20300;-58
2022/06/24 01:54:38;;;;;;;10.25;6.70;;;;;;;;;;4449392;32;20295;-58
2022/06/24 01:57:03;;;;;;;13.32;7.32;;;;;;;;;;4449094;32;20297;-58
2022/06/24 01:59:29;;;;;;;9.15;6.97;;;;;;;;;;4450566;32;20734;-58
2022/06/24 02:01:54;;;;;;;8.90;6.50;;;;;;;;;;4450332;32;20220;-57
2022/06/24 02:04:20;;;;;;;10.10;7.35;;;;;;;;;;4449009;32;20580;-57
2022/06/24 02:06:45;;;;;;;9.13;6.62;;;;;;;;;;4449715;32;20247;-58
2022/06/24 02:09:11;;;;;;;8.50;7.60;;;;;;;;;;4450125;32;20223;-58
2022/06/24 02:14:21;;;;;;;12.52;7.80;;;;;;;;;;4450482;32;20253;-60
2022/06/24 02:16:47;;;;;;;7.60;6.78;;;;;;;;;;4450202;32;20311;-58
2022/06/24 02:19:12;;;;;;;8.32;6.72;;;;;;;;;;4449556;32;20228;-58
2022/06/24 02:21:38;;;;;;;10.45;7.62;;;;;;;;;;4449979;32;20300;-58
2022/06/24 02:24:05;;;;;;;12.18;7.22;;;;;;;;;;4450190;32;20239;-58
2022/06/24 02:26:30;;;;;;;12.57;8.25;;;;;;;;;;4450224;32;20212;-58
2022/06/24 02:28:56;;;;;;;11.95;8.25;;;;;;;;;;4449974;32;20295;-57
2022/06/24 02:31:21;;;;;;;12.45;9.75;;;;;;;;;;4449802;32;20220;-57
2022/06/24 02:33:47;;;;;;;11.73;8.85;;;;;;;;;;4449704;32;20240;-57
2022/06/24 02:36:13;;;;;;;16.48;9.10;;;;;;;;;;4449900;32;20270;-56
2022/06/24 02:38:39;;;;;;;10.13;8.85;;;;;;;;;;4448761;32;20254;-58
2022/06/24 02:41:05;;;;;;;11.57;9.00;;;;;;;;;;4449825;32;20315;-57
2022/06/24 02:43:35;;;;;;;10.82;8.23;;;;;;;;;;4437000;32;20292;-58
2022/06/24 02:46:03;;;;;;;11.63;7.78;;;;;;;;;;4434390;32;20197;-58
2022/06/24 02:48:30;;;;;;;10.68;8.00;;;;;;;;;;4434068;32;20296;-58
2022/06/24 02:50:57;;;;;;;16.98;7.47;;;;;;;;;;4434218;32;20199;-59
2022/06/24 02:53:23;;;;;;;8.02;7.00;;;;;;;;;;4446160;32;20232;-58
2022/06/24 02:55:55;;;;;;;10.00;7.82;;;;;;;;;;4434561;32;20275;-57
2022/06/24 02:58:20;;;;;;;19.17;9.65;;;;;;;;;;4434371;32;20209;-59
2022/06/24 03:00:46;;;;;;;11.15;8.80;;;;;;;;;;4434411;32;20636;-59
2022/06/24 03:03:14;;;;;;;15.45;9.60;;;;;;;;;;4434046;32;20224;-59
2022/06/24 03:05:40;;;;;;;10.73;8.75;;;;;;;;;;4434344;32;20228;-59
2022/06/24 03:08:07;;;;;;;11.07;8.13;;;;;;;;;;4434304;32;20221;-58
2022/06/24 03:10:32;;;;;;;11.88;8.32;;;;;;;;;;4434298;32;20217;-57
2022/06/24 03:12:58;;;;;;;14.02;9.18;;;;;;;;;;4434275;32;20287;-58
2022/06/24 03:15:23;;;;;;;11.05;7.25;;;;;;;;;;4438004;32;20259;-58
2022/06/24 03:17:49;;;;;;;15.68;8.45;;;;;;;;;;4449161;32;20228;-57
2022/06/24 03:20:15;;;;;;;12.25;8.38;;;;;;;;;;4452932;32;20209;-59
2022/06/24 03:22:41;;;;;;;11.52;8.73;;;;;;;;;;4452675;32;20220;-57
2022/06/24 03:25:07;;;;;;;19.60;8.27;;;;;;;;;;4452758;32;20262;-57
2022/06/24 03:27:34;;;;;;;11.70;8.75;;;;;;;;;;4452749;32;20304;-57
2022/06/24 03:30:00;;;;;;;9.95;7.80;;;;;;;;;;4452655;32;20521;-57
2022/06/24 03:32:25;;;;;;;11.90;8.00;;;;;;;;;;4452793;32;20270;-59
2022/06/24 03:34:51;;;;;;;11.95;8.38;;;;;;;;;;4452179;32;20255;-58
2022/06/24 03:37:17;;;;;;;14.27;8.45;;;;;;;;;;4452327;32;20251;-57
2022/06/24 03:39:42;;;;;;;13.15;7.93;;;;;;;;;;4452657;32;20251;-58
2022/06/24 03:42:08;;;;;;;15.43;8.95;;;;;;;;;;4448291;32;20693;-58
2022/06/24 03:44:33;;;;;;;13.95;8.75;;;;;;;;;;4436776;32;20217;-58
2022/06/24 03:47:01;;;;;;;10.75;8.82;;;;;;;;;;4436626;32;20296;-57
2022/06/24 03:49:26;;;;;;;10.57;7.95;;;;;;;;;;4436436;32;20213;-58
2022/06/24 03:51:52;;;;;;;18.15;8.82;;;;;;;;;;4436620;32;20299;-58
2022/06/24 03:54:17;;;;;;;12.13;8.07;;;;;;;;;;4435361;32;20295;-58
2022/06/24 03:56:43;;;;;;;12.13;7.50;;;;;;;;;;4435930;32;20221;-59
2022/06/24 03:59:08;;;;;;;13.68;8.93;;;;;;;;;;4436104;32;20225;-58
2022/06/24 04:01:34;;;;;;;17.05;9.02;;;;;;;;;;4436137;32;20212;-58
2022/06/24 04:03:59;;;;;;;11.75;9.52;;;;;;;;;;4435713;32;20689;-59
2022/06/24 04:06:24;;;;;;;18.52;10.52;;;;;;;;;;4435931;32;20225;-58
2022/06/24 04:08:52;;;;;;;14.77;9.20;;;;;;;;;;4435900;32;20197;-58
2022/06/24 04:11:18;;;;;;;16.05;10.30;;;;;;;;;;4435868;32;20304;-57
2022/06/24 04:13:44;;;;;;;11.85;8.85;;;;;;;;;;4449710;32;20213;-57
2022/06/24 04:16:10;;;;;;;14.13;8.25;;;;;;;;;;4451086;32;20204;-58
2022/06/24 04:18:36;;;;;;;11.57;8.90;;;;;;;;;;4451238;32;20252;-57
2022/06/24 04:21:02;;;;;;;15.30;10.15;;;;;;;;;;4450878;32;20678;-58
2022/06/24 04:23:27;;;;;;;17.00;9.32;;;;;;;;;;4451076;32;20317;-58
2022/06/24 04:25:53;;;;;;;14.10;8.70;;;;;;;;;;4450865;32;20192;-58
2022/06/24 04:28:19;;;;;;;16.17;9.80;;;;;;;;;;4451002;32;20553;-59
2022/06/24 04:30:44;;;;;;;14.32;9.32;;;;;;;;;;4450545;32;20340;-57
2022/06/24 04:33:10;;;;;;;15.05;10.43;;;;;;;;;;4450658;32;20277;-57
2022/06/24 04:35:36;;;;;;;10.68;8.73;;;;;;;;;;4450725;32;20205;-57
2022/06/24 04:38:01;;;;;;;14.73;10.25;;;;;;;;;;4450246;32;20525;-58
2022/06/24 04:40:27;;;;;;;15.43;10.30;;;;;;;;;;4450248;32;20258;-58
2022/06/24 04:42:53;;;;;;;21.02;10.48;;;;;;;;;;4442341;32;20310;-58
2022/06/24 04:45:18;;;;;;;17.27;10.93;;;;;;;;;;4435247;32;20625;-58
2022/06/24 04:47:44;;;;;;;13.55;10.20;;;;;;;;;;4434125;32;20255;-58
2022/06/24 04:50:10;;;;;;;18.12;9.88;;;;;;;;;;4435519;32;20692;-58
2022/06/24 04:52:37;;;;;;;14.50;9.27;;;;;;;;;;4435589;32;20243;-59
2022/06/24 04:55:04;;;;;;;11.40;10.00;;;;;;;;;;4435518;32;20714;-57
2022/06/24 04:57:30;;;;;;;14.93;9.10;;;;;;;;;;4435322;32;20220;-58
2022/06/24 04:59:55;;;;;;;20.02;10.50;;;;;;;;;;4434708;32;20401;-57
2022/06/24 05:02:21;;;;;;;16.02;9.60;;;;;;;;;;4434578;32;20287;-58
2022/06/24 05:04:46;;;;;;;14.82;10.63;;;;;;;;;;4435013;32;20224;-57
2022/06/24 05:07:12;;;;;;;16.55;9.27;;;;;;;;;;4435388;32;20660;-57
2022/06/24 05:09:37;;;;;;;16.65;10.63;;;;;;;;;;4446195;32;20328;-57
2022/06/24 05:12:04;;;;;;;12.77;10.40;;;;;;;;;;4448828;32;20656;-57
2022/06/24 05:14:30;;;;;;;16.92;10.55;;;;;;;;;;4449458;32;20224;-57
2022/06/24 05:16:56;;;;;;;13.80;9.90;;;;;;;;;;4448402;32;20233;-57
2022/06/24 05:19:22;;;;;;;17.10;9.68;;;;;;;;;;4448918;32;21117;-58
2022/06/24 05:21:48;;;;;;;17.33;9.55;;;;;;;;;;4448445;32;20360;-57
2022/06/24 05:24:13;;;;;;;12.27;9.52;;;;;;;;;;4447374;32;20240;-57
2022/06/24 05:26:43;;;;;;;14.95;9.75;;;;;;;;;;4450031;32;20288;-56
2022/06/24 05:29:09;;;;;;;16.55;9.00;;;;;;;;;;4450023;32;20281;-57
2022/06/24 05:31:35;;;;;;;14.25;8.98;;;;;;;;;;4450481;32;20348;-58
2022/06/24 05:34:00;;;;;;;12.13;9.55;;;;;;;;;;4449926;32;20263;-57
2022/06/24 05:36:26;;;;;;;13.52;9.10;;;;;;;;;;4450014;32;20611;-57
2022/06/24 05:38:51;;;;;;;12.85;9.07;;;;;;;;;;4449900;32;20940;-57
2022/06/24 05:41:17;;;;;;;12.00;8.95;;;;;;;;;;4449799;32;20553;-57
2022/06/24 05:43:44;;;;;;;18.30;9.52;;;;;;;;;;4449968;32;20234;-57
2022/06/24 05:46:10;;;;;;;20.37;8.93;;;;;;;;;;4450038;32;20259;-58
2022/06/24 05:48:36;;;;;;;11.25;9.40;;;;;;;;;;4449355;32;20286;-58
2022/06/24 05:51:12;;;;;;;13.55;9.10;;;;;;;;;;4449858;32;20273;-57
2022/06/24 05:56:24;;;;;;;15.05;10.05;;;;;;;;;;4449656;32;20686;-57
2022/06/24 05:58:50;;;;;;;16.85;10.30;;;;;;;;;;4447991;32;20344;-58
2022/06/24 06:01:16;;;;;;;16.87;10.05;;;;;;;;;;4449443;32;20323;-58
2022/06/24 06:03:41;;;;;;;14.73;9.88;;;;;;;;;;4447562;32;20263;-58
2022/06/24 06:06:07;;;;;;;12.50;8.93;;;;;;;;;;4435536;32;20235;-58
2022/06/24 06:08:37;;;;;;;12.13;8.63;;;;;;;;;;4432062;32;20232;-58
2022/06/24 06:11:29;;;;;;;16.17;10.02;;;;;;;;;;4433364;32;20273;-59
2022/06/24 06:13:56;;;;;;;10.88;9.15;;;;;;;;;;4430172;32;20247;-58
2022/06/24 06:16:22;;;;;;;12.00;9.02;;;;;;;;;;4442903;32;20688;-57
2022/06/24 06:18:48;;;;;;;17.30;9.05;;;;;;;;;;4448317;32;20235;-59
2022/06/24 06:21:14;;;;;;;22.20;9.85;;;;;;;;;;4448063;32;20324;-58
2022/06/24 06:23:40;;;;;;;18.58;9.00;;;;;;;;;;4448534;32;20536;-58
2022/06/24 06:26:07;;;;;;;12.48;8.27;;;;;;;;;;4448667;32;20204;-58
2022/06/24 06:28:33;;;;;;;14.52;9.45;;;;;;;;;;4448550;32;20224;-58
2022/06/24 06:30:58;;;;;;;14.45;9.70;;;;;;;;;;4448253;32;20332;-59
2022/06/24 06:33:25;;;;;;;13.95;8.27;;;;;;;;;;4447778;32;20296;-58
2022/06/24 06:35:50;;;;;;;12.98;9.07;;;;;;;;;;4448376;32;20213;-58
2022/06/24 06:38:16;;;;;;;13.15;9.45;;;;;;;;;;4448401;32;20226;-58
2022/06/24 06:40:42;;;;;;;11.63;8.00;;;;;;;;;;4448515;32;20227;-57
2022/06/24 06:43:09;;;;;;;16.83;9.23;;;;;;;;;;4438048;32;20321;-56
2022/06/24 06:45:36;;;;;;;14.85;9.85;;;;;;;;;;4433255;32;20252;-56
2022/06/24 06:48:02;;;;;;;14.57;7.53;;;;;;;;;;4432276;32;20258;-55
2022/06/24 06:50:28;;;;;;;14.32;8.32;;;;;;;;;;4441160;32;20683;-57
2022/06/24 06:52:53;;;;;;;10.60;7.70;;;;;;;;;;4447714;32;20307;-55
2022/06/24 06:55:19;;;;;;;10.60;6.93;;;;;;;;;;4448517;32;20338;-58
2022/06/24 06:57:46;;;;;;;11.77;7.62;;;;;;;;;;4449057;32;20371;-58
2022/06/24 07:00:13;;;;;;;10.52;7.47;;;;;;;;;;4448708;32;20221;-57
2022/06/24 07:02:39;;;;;;;11.40;7.72;;;;;;;;;;4448264;32;20390;-57
2022/06/24 07:05:05;;;;;;;9.88;7.68;;;;;;;;;;4447249;32;20233;-58
2022/06/24 07:07:31;;;;;;;14.43;8.10;;;;;;;;;;4446591;32;20228;-57
2022/06/24 07:09:59;;;;;;;12.45;8.52;;;;;;;;;;4445396;32;20228;-58
2022/06/24 07:12:26;;;;;;;10.50;8.52;;;;;;;;;;4445473;32;20280;-57
2022/06/24 07:14:52;;;;;;;12.27;8.48;;;;;;;;;;4445678;32;20276;-57
2022/06/24 07:17:18;;;;;;;13.20;9.23;;;;;;;;;;4445324;32;20228;-57
2022/06/24 07:19:45;;;;;;;11.60;8.18;;;;;;;;;;4445648;32;20239;-57
2022/06/24 07:22:10;;;;;;;12.55;8.48;;;;;;;;;;4447600;32;20267;-57
2022/06/24 07:24:36;;;;;;;19.40;8.55;;;;;;;;;;4447865;32;20291;-57
2022/06/24 07:27:07;;;;;;;9.77;7.43;;;;;;;;;;4448349;32;20216;-57
2022/06/24 07:29:33;;;;;;;12.02;7.20;;;;;;;;;;4448119;32;20514;-58
2022/06/24 07:32:04;;;;;;;11.27;7.55;;;;;;;;;;4446678;32;20244;-57
2022/06/24 07:34:33;;;;;;;10.07;6.25;;;;;;;;;;4448488;32;20201;-56
2022/06/24 07:37:02;;;;;;;9.23;6.30;;;;;;;;;;4448050;32;20295;-56
2022/06/24 07:39:28;;;;;;;12.25;6.40;;;;;;;;;;4447906;32;20285;-57
2022/06/24 07:41:54;;;;;;;9.15;6.25;;;;;;;;;;4447974;32;20217;-57
2022/06/24 07:44:20;;;;;;;20.27;7.03;;;;;;;;;;4448275;32;20235;-57
2022/06/24 07:46:46;;;;;;;27.87;7.30;;;;;;;;;;4448303;32;20236;-58
2022/06/24 07:49:12;;;;;;;10.50;6.25;;;;;;;;;;4448073;32;20444;-58
2022/06/24 07:51:37;;;;;;;15.60;5.70;;;;;;;;;;4448400;32;20281;-56
2022/06/24 07:54:05;;;;;;;11.00;4.97;;;;;;;;;;4448151;32;20212;-56
2022/06/24 07:59:15;;;;;;;6.50;5.03;;;;;;;;;;4432456;32;20757;-57
2022/06/24 08:01:41;;;;;;;5.62;3.87;;;;;;;;;;4431541;32;20217;-57
2022/06/24 08:04:10;;;;;;;8.18;4.40;;;;;;;;;;4432980;32;20217;-57
2022/06/24 08:06:37;;;;;;;7.55;4.07;;;;;;;;;;4450435;32;20253;-56
2022/06/24 08:09:04;;;;;;;6.15;4.62;;;;;;;;;;4450175;32;20204;-56
2022/06/24 08:11:30;;;;;;;8.25;5.07;;;;;;;;;;4449810;32;20209;-57
2022/06/24 08:13:55;;;;;;;8.25;3.72;;;;;;;;;;4448851;32;20200;-54
2022/06/24 08:16:22;;;;;;;6.85;2.20;;;;;;;;;;4449013;32;20274;-57
2022/06/24 08:18:49;;;;;;;6.68;3.12;;;;;;;;;;4450477;32;20723;-57
2022/06/24 08:21:14;;;;;;;7.47;2.35;;;;;;;;;;4445874;32;20577;-57
2022/06/24 08:23:40;;;;;;;4.95;2.92;;;;;;;;;;4450620;32;20227;-57
2022/06/24 08:26:05;;;;;;;8.35;4.00;;;;;;;;;;4448422;32;20296;-57
2022/06/24 08:28:31;;;;;;;15.18;3.70;;;;;;;;;;4447915;32;20204;-56
2022/06/24 08:30:56;;;;;;;5.12;3.22;;;;;;;;;;4448979;32;20239;-56
2022/06/24 08:33:22;;;;;;;4.47;3.28;;;;;;;;;;4450163;32;20201;-56
2022/06/24 08:35:48;;;;;;;3.20;2.90;;;;;;;;;;4450031;32;20275;-56
2022/06/24 08:38:16;;;;;;;5.72;3.60;;;;;;;;;;4450452;32;20562;-57
2022/06/24 08:40:46;;;;;;;9.57;3.15;;;;;;;;;;4449893;32;20251;-57
2022/06/24 08:43:13;;;;;;;4.75;2.85;;;;;;;;;;4438652;32;20240;-57
2022/06/24 08:45:38;;;;;;;4.12;2.72;;;;;;;;;;4434133;32;20796;-57
2022/06/24 08:48:07;;;;;;;9.27;3.30;;;;;;;;;;4432933;32;20233;-57
2022/06/24 08:50:33;;;;;;;3.55;2.42;;;;;;;;;;4435583;32;20640;-57
2022/06/24 08:53:08;;;;;;;5.75;3.05;;;;;;;;;;4449287;32;20304;-56
2022/06/24 08:55:36;;;;;;;4.50;3.05;;;;;;;;;;4448410;32;20244;-57
2022/06/24 08:58:09;;;;;;;15.65;4.15;;;;;;;;;;4449558;32;20607;-57
2022/06/24 09:00:35;;;;;;;5.80;2.42;;;;;;;;;;4449254;32;20552;-56
2022/06/24 09:03:01;;;;;;;8.00;2.80;;;;;;;;;;4449043;32;20256;-57
2022/06/24 09:05:27;;;;;;;8.88;3.08;;;;;;;;;;4449286;32;20214;-57
2022/06/24 09:08:10;;;;;;;3.97;2.67;;;;;;;;;;4448520;32;20284;-57
2022/06/24 09:10:38;;;;;;;3.65;2.50;;;;;;;;;;4447428;32;20282;-57
2022/06/24 09:13:04;;;;;;;10.30;3.03;;;;;;;;;;4449151;32;20270;-57
2022/06/24 09:15:30;;;;;;;8.15;2.30;;;;;;;;;;4449156;32;20208;-57
2022/06/24 09:17:55;;;;;;;5.97;2.33;;;;;;;;;;4449475;32;20239;-57
2022/06/24 09:20:26;;;;;;;3.85;2.70;;;;;;;;;;4449459;32;20276;-56
2022/06/24 09:23:12;;;;;;;17.80;3.85;;;;;;;;;;4448606;32;20283;-56
2022/06/24 09:25:45;;;;;;;3.92;2.65;;;;;;;;;;4447264;32;20228;-56
2022/06/24 09:28:18;;;;;;;5.50;2.62;;;;;;;;;;4448849;32;20225;-58
2022/06/24 09:30:44;;;;;;;5.10;2.53;;;;;;;;;;4449041;32;20257;-57
2022/06/24 09:33:15;;;;;;;2.67;2.37;;;;;;;;;;4448890;32;20216;-57
2022/06/24 09:35:41;;;;;;;23.20;7.28;;;;;;;;;;4447371;32;20246;-57
2022/06/24 09:38:06;;;;;;;11.48;2.72;;;;;;;;;;4434886;32;20213;-57
2022/06/24 09:40:32;;;;;;;5.03;2.55;;;;;;;;;;4433022;32;20523;-57
2022/06/24 09:43:05;;;;;;;3.03;2.67;;;;;;;;;;4433234;32;20296;-57
2022/06/24 09:45:53;;;;;;;3.85;2.65;;;;;;;;;;4433087;32;20227;-57
2022/06/24 09:48:29;;;;;;;6.93;2.58;;;;;;;;;;4433149;32;20350;-57
2022/06/24 09:50:59;;;;;;;3.85;2.60;;;;;;;;;;4432956;32;20264;-57
2022/06/24 09:53:26;;;;;;;6.15;2.33;;;;;;;;;;4432677;32;20221;-56
2022/06/24 09:55:53;;;;;;;11.10;3.85;;;;;;;;;;4432694;32;20303;-56
2022/06/24 09:58:19;;;;;;;4.87;2.10;;;;;;;;;;4431733;32;20384;-56
2022/06/24 10:00:46;;;;;;;8.48;2.72;;;;;;;;;;4448144;32;20231;-57
2022/06/24 10:03:15;;;;;;;2.33;1.42;;;;;;;;;;4449092;32;20630;-57
2022/06/24 10:05:44;;;;;;;2.83;1.65;;;;;;;;;;4448895;32;20283;-57
2022/06/24 10:08:16;;;;;;;2.95;1.87;;;;;;;;;;4446917;32;20240;-57
2022/06/24 10:10:49;;;;;;;3.00;1.62;;;;;;;;;;4448005;32;20208;-58
2022/06/24 10:13:27;;;;;;;3.17;1.70;;;;;;;;;;4448082;32;20678;-56
2022/06/24 10:15:55;;;;;;;2.58;1.52;;;;;;;;;;4446274;32;20268;-57
2022/06/24 10:18:27;;;;;;;6.10;1.50;;;;;;;;;;4446716;32;20271;-57
2022/06/24 10:20:57;;;;;;;1.80;1.40;;;;;;;;;;4446246;32;20317;-57
2022/06/24 10:23:42;;;;;;;6.87;2.15;;;;;;;;;;4430188;32;20243;-57
2022/06/24 10:26:31;;;;;;;2.80;1.60;;;;;;;;;;4430184;32;20189;-57
2022/06/24 10:28:59;;;;;;;5.25;1.70;;;;;;;;;;4430822;32;20244;-57
2022/06/24 10:34:25;;;;;;;9.77;2.12;;;;;;;;;;4432307;32;20680;-56
2022/06/24 10:37:23;;;;;;;2.95;1.67;;;;;;;;;;4430307;32;20252;-56
2022/06/24 10:39:57;;;;;;;2.95;1.65;;;;;;;;;;4432577;32;20354;-57
2022/06/24 10:42:24;;;;;;;4.55;2.00;;;;;;;;;;4432486;32;20311;-56
2022/06/24 10:45:00;;;;;;;2.87;2.10;;;;;;;;;;4432813;32;20310;-57
2022/06/24 10:47:36;;;;;;;5.40;1.92;;;;;;;;;;4432226;32;20335;-57
2022/06/24 10:50:02;;;;;;;3.97;1.95;;;;;;;;;;4432215;32;20371;-58
2022/06/24 10:52:51;;;;;;;2.12;1.62;;;;;;;;;;4432457;32;20213;-56
2022/06/24 10:55:28;;;;;;;10.27;3.15;;;;;;;;;;4436311;32;20267;-57
2022/06/24 10:57:56;;;;;;;4.72;2.28;;;;;;;;;;4447584;32;20254;-57
2022/06/24 11:00:26;;;;;;;9.50;3.15;;;;;;;;;;4447185;32;20663;-57
2022/06/24 11:03:13;;;;;;;3.60;1.85;;;;;;;;;;4446101;32;20240;-57
2022/06/24 11:05:44;;;;;;;2.53;1.73;;;;;;;;;;4445557;32;20283;-57
2022/06/24 11:08:13;;;;;;;4.60;2.17;;;;;;;;;;4445670;32;20248;-57
2022/06/24 11:10:40;;;;;;;3.22;1.87;;;;;;;;;;4445258;32;20287;-57
2022/06/24 11:13:05;;;;;;;4.72;1.83;;;;;;;;;;4445041;32;20221;-57
2022/06/24 11:15:46;;;;;;;3.87;1.77;;;;;;;;;;4445046;32;20267;-57
2022/06/24 11:18:20;;;;;;;3.15;1.52;;;;;;;;;;4446899;32;20726;-56
2022/06/24 11:20:59;;;;;;;2.35;1.37;;;;;;;;;;4448011;32;20698;-57
2022/06/24 11:23:26;;;;;;;2.83;1.80;;;;;;;;;;4431312;32;20193;-57
2022/06/24 11:25:57;;;;;;;2.40;1.42;;;;;;;;;;4429969;32;20243;-57
2022/06/24 11:28:29;;;;;;;4.07;1.87;;;;;;;;;;4432007;32;20569;-58
2022/06/24 11:31:17;;;;;;;4.68;2.35;;;;;;;;;;4431835;32;20259;-57
2022/06/24 11:33:43;;;;;;;4.03;1.90;;;;;;;;;;4432085;32;20686;-57
2022/06/24 11:36:09;;;;;;;3.33;1.67;;;;;;;;;;4431903;32;20209;-57
2022/06/24 11:38:48;;;;;;;2.92;1.67;;;;;;;;;;4448015;32;20208;-57
2022/06/24 11:41:21;;;;;;;2.85;1.45;;;;;;;;;;4449991;32;20240;-56
2022/06/24 11:43:50;;;;;;;5.55;1.80;;;;;;;;;;4451220;32;20638;-57
2022/06/24 11:46:16;;;;;;;3.95;1.50;;;;;;;;;;4450318;32;20238;-57
2022/06/24 11:48:42;;;;;;;3.65;1.77;;;;;;;;;;4450398;32;20226;-57
2022/06/24 11:51:16;;;;;;;8.20;1.77;;;;;;;;;;4449870;32;20528;-56
2022/06/24 11:53:57;;;;;;;2.70;1.40;;;;;;;;;;4448585;32;20224;-57
2022/06/24 11:56:28;;;;;;;5.95;1.60;;;;;;;;;;4449873;32;20208;-57
2022/06/24 11:58:55;;;;;;;3.90;1.20;;;;;;;;;;4450641;32;20216;-57
2022/06/24 12:01:22;;;;;;;3.95;1.80;;;;;;;;;;4450111;32;20640;-57
2022/06/24 12:03:50;;;;;;;4.15;1.27;;;;;;;;;;4449976;32;20298;-57
2022/06/24 12:06:17;;;;;;;6.07;1.25;;;;;;;;;;4448797;32;20217;-57
2022/06/24 12:08:42;;;;;;;5.18;1.23;;;;;;;;;;4449748;32;20392;-57
2022/06/24 12:11:16;;;;;;;5.60;1.75;;;;;;;;;;4450418;32;20212;-57
2022/06/24 12:13:42;;;;;;;2.45;0.95;;;;;;;;;;4450396;32;20201;-57
2022/06/24 12:16:09;;;;;;;1.62;1.20;;;;;;;;;;4450689;32;20630;-57
2022/06/24 12:18:35;;;;;;;2.75;1.70;;;;;;;;;;4451244;32;20710;-57
2022/06/24 12:21:07;;;;;;;2.22;1.33;;;;;;;;;;4450153;32;20209;-58
2022/06/24 12:23:51;;;;;;;2.05;1.30;;;;;;;;;;4450795;32;20196;-57
2022/06/24 12:26:25;;;;;;;2.20;1.35;;;;;;;;;;4451116;32;20284;-57
2022/06/24 12:29:05;;;;;;;3.45;1.67;;;;;;;;;;4450664;32;20255;-57
2022/06/24 12:31:34;;;;;;;5.05;1.73;;;;;;;;;;4450663;32;20310;-56
2022/06/24 12:34:03;;;;;;;3.45;1.77;;;;;;;;;;4450285;32;20299;-57
2022/06/24 12:36:41;;;;;;;3.95;2.53;;;;;;;;;;4450664;32;20747;-57
2022/06/24 12:39:47;;;;;;;1.50;1.20;;;;;;;;;;4412853;32;20240;-57
2022/06/24 12:42:17;;;;;;;3.78;1.50;;;;;;;;;;4415701;32;20365;-57
2022/06/24 12:44:45;;;;;;;7.22;1.67;;;;;;;;;;4418114;32;20201;-57
2022/06/24 12:50:58;;;;;;;2.53;1.30;;;;;;;;;;4401668;32;20652;-57
2022/06/24 12:53:00;;;;;;;3.62;1.60;;;;;;;;;;4402177;32;20257;-58
2022/06/24 12:55:28;;;;;;;1.67;1.05;;;;;;;;;;4401884;32;20206;-57
2022/06/24 12:57:54;;;;;;;1.50;1.23;;;;;;;;;;4402604;32;20301;-58
2022/06/24 13:00:20;;;;;;;1.40;1.02;;;;;;;;;;4388777;32;20257;-57
2022/06/24 13:02:48;;;;;;;5.18;1.23;;;;;;;;;;4401583;32;20233;-58
2022/06/24 13:05:15;;;;;;;1.25;1.15;;;;;;;;;;4401321;32;20398;-57
2022/06/24 13:07:40;;;;;;;3.55;1.65;;;;;;;;;;4402196;32;20225;-57
2022/06/24 13:10:08;;;;;;;2.62;1.40;;;;;;;;;;4401977;32;20244;-57
2022/06/24 13:12:34;;;;;;;1.67;1.20;;;;;;;;;;4402456;32;20289;-57
2022/06/24 13:15:02;;;;;;;2.03;1.20;;;;;;;;;;4402646;32;20280;-56
2022/06/24 13:17:27;;;;;;;1.30;1.20;;;;;;;;;;4417548;32;20766;-56
2022/06/24 13:19:53;;;;;;;1.83;1.20;;;;;;;;;;4405044;32;20265;-57
2022/06/24 13:22:18;;;;;;;1.23;1.10;;;;;;;;;;4416366;32;20327;-57
2022/06/24 13:24:44;;;;;;;1.65;1.12;;;;;;;;;;4418552;32;20734;-57
2022/06/24 13:27:09;;;;;;;1.73;1.00;;;;;;;;;;4450417;32;20212;-57
2022/06/24 13:29:35;;;;;;;1.73;1.20;;;;;;;;;;4449373;32;20272;-57
2022/06/24 13:32:00;;;;;;;1.25;1.15;;;;;;;;;;4448702;32;20248;-58
2022/06/24 13:34:26;;;;;;;2.03;1.17;;;;;;;;;;4449886;32;20201;-57
2022/06/24 13:36:52;;;;;;;1.52;0.98;;;;;;;;;;4450699;32;20291;-57
2022/06/24 13:39:18;;;;;;;3.37;1.20;;;;;;;;;;4448872;32;20675;-58
2022/06/24 13:41:43;;;;;;;1.90;1.48;;;;;;;;;;4449185;32;20251;-57
2022/06/24 13:44:09;;;;;;;2.33;1.02;;;;;;;;;;4449610;32;20248;-57
2022/06/24 13:46:34;;;;;;;1.37;1.00;;;;;;;;;;4450122;32;20580;-58
2022/06/24 13:49:00;;;;;;;1.95;1.23;;;;;;;;;;4450448;32;20231;-58
2022/06/24 13:51:26;;;;;;;2.20;1.27;;;;;;;;;;4449813;32;20229;-58
2022/06/24 13:53:52;;;;;;;1.20;1.10;;;;;;;;;;4449957;32;20709;-57
2022/06/24 13:56:20;;;;;;;1.08;0.90;;;;;;;;;;4449336;32;20265;-58
2022/06/24 13:58:45;;;;;;;1.83;1.30;;;;;;;;;;4446696;32;20205;-57
2022/06/24 14:01:12;;;;;;;1.08;0.88;;;;;;;;;;4445430;32;20445;-59
2022/06/24 14:03:38;;;;;;;2.58;1.23;;;;;;;;;;4434519;32;20209;-57
2022/06/24 14:06:04;;;;;;;1.30;1.10;;;;;;;;;;4433759;32;20197;-58
2022/06/24 14:08:30;;;;;;;2.97;1.37;;;;;;;;;;4433884;32;20316;-58
2022/06/24 14:10:56;;;;;;;1.60;1.10;;;;;;;;;;4443898;32;20645;-58
2022/06/24 14:13:22;;;;;;;2.47;1.20;;;;;;;;;;4448999;32;20217;-58
2022/06/24 14:15:47;;;;;;;2.42;1.30;;;;;;;;;;4434899;32;20236;-58
2022/06/24 14:18:13;;;;;;;4.62;1.17;;;;;;;;;;4449313;32;20216;-57
2022/06/24 14:20:40;;;;;;;2.20;1.30;;;;;;;;;;4435277;32;20317;-58
2022/06/24 14:25:50;;;;;;;3.17;1.20;;;;;;;;;;4449504;32;20207;-57
2022/06/24 14:28:16;;;;;;;3.10;1.25;;;;;;;;;;4447857;32;20224;-57
2022/06/24 14:30:41;;;;;;;4.70;1.58;;;;;;;;;;4449028;32;20193;-57
2022/06/24 14:33:07;;;;;;;5.28;2.53;;;;;;;;;;4449578;32;20247;-57
2022/06/24 14:35:32;;;;;;;1.77;1.27;;;;;;;;;;4450003;32;20197;-58
2022/06/24 14:40:41;;;;;;;2.33;1.37;;;;;;;;;;4449657;32;20211;-58
2022/06/24 14:43:07;;;;;;;1.85;1.30;;;;;;;;;;4449025;32;20515;-58
2022/06/24 14:45:33;;;;;;;1.10;1.00;;;;;;;;;;4447592;32;20216;-56
2022/06/24 14:48:03;;;;;;;1.90;1.12;;;;;;;;;;4449695;32;20326;-58
2022/06/24 14:50:30;;;;;;;2.47;1.40;;;;;;;;;;4450042;32;20271;-59
2022/06/24 14:52:55;;;;;;;1.85;1.20;;;;;;;;;;4449782;32;20225;-59
2022/06/24 14:55:25;;;;;;;3.17;1.45;;;;;;;;;;4449647;32;20235;-58
2022/06/24 14:57:51;;;;;;;3.10;1.65;;;;;;;;;;4449572;32;20220;-59
2022/06/24 15:00:17;;;;;;;2.55;1.10;;;;;;;;;;4448688;32;20279;-58